Time;durP1;ratioP1;P1;durP2;ratioP2;P2;SDS_P1;SDS_P2;PMS_P1;PMS_P2;Temp;Humidity;BMP_temperature;BMP_pressure;BME280_temperature;BME280_humidity;BME280_pressure;Samples;Min_cycle;Max_cycle;Signal;HPM_P1;HPM_P2
2021/04/02 00:00:21;;;;;;;8.70;5.70;;;;;;;;;;4994334;28;20599;-76
2021/04/02 00:02:46;;;;;;;6.90;6.20;;;;;;;;;;4994744;28;20517;-74
2021/04/02 00:05:14;;;;;;;11.70;5.77;;;;;;;;;;4994591;28;20288;-74
2021/04/02 00:07:41;;;;;;;9.00;5.70;;;;;;;;;;4988662;28;20439;-74
2021/04/02 00:10:08;;;;;;;6.80;5.75;;;;;;;;;;4994512;28;20255;-74
2021/04/02 00:12:34;;;;;;;7.38;6.05;;;;;;;;;;4994935;28;20198;-73
2021/04/02 00:15:00;;;;;;;9.10;5.87;;;;;;;;;;4993773;28;20239;-74
2021/04/02 00:17:26;;;;;;;7.97;7.07;;;;;;;;;;4993851;28;20415;-73
2021/04/02 00:19:52;;;;;;;15.02;6.57;;;;;;;;;;4995017;28;20963;-73
2021/04/02 00:22:18;;;;;;;11.10;5.30;;;;;;;;;;4985768;28;20298;-74
2021/04/02 00:24:44;;;;;;;8.00;6.13;;;;;;;;;;4975087;28;20785;-73
2021/04/02 00:27:10;;;;;;;7.33;6.57;;;;;;;;;;4990888;28;20490;-72
2021/04/02 00:29:36;;;;;;;10.93;7.53;;;;;;;;;;4993655;28;20430;-73
2021/04/02 00:32:02;;;;;;;7.97;6.68;;;;;;;;;;4993947;28;20478;-73
2021/04/02 00:34:28;;;;;;;7.73;6.20;;;;;;;;;;4994086;28;20219;-74
2021/04/02 00:36:54;;;;;;;8.30;6.50;;;;;;;;;;5024071;22;20997;-78
2021/04/02 00:39:20;;;;;;;10.73;5.90;;;;;;;;;;4998660;28;20860;-77
2021/04/02 00:41:46;;;;;;;6.67;5.97;;;;;;;;;;4998632;28;20417;-78
2021/04/02 00:44:12;;;;;;;13.00;7.10;;;;;;;;;;4999727;28;20414;-78
2021/04/02 00:46:38;;;;;;;7.57;6.70;;;;;;;;;;4991086;28;20518;-78
2021/04/02 00:49:03;;;;;;;9.53;6.73;;;;;;;;;;4980625;28;20487;-78
2021/04/02 00:51:30;;;;;;;9.10;6.80;;;;;;;;;;4979324;28;20467;-78
2021/04/02 00:53:56;;;;;;;7.70;6.47;;;;;;;;;;4980196;28;20429;-79
2021/04/02 00:56:23;;;;;;;12.15;8.27;;;;;;;;;;4981350;28;20201;-79
2021/04/02 00:58:49;;;;;;;10.25;6.72;;;;;;;;;;4980501;28;20283;-79
2021/04/02 01:01:16;;;;;;;7.07;6.32;;;;;;;;;;4995927;28;20185;-78
2021/04/02 01:03:42;;;;;;;9.38;7.53;;;;;;;;;;5003811;28;20186;-78
2021/04/02 01:06:13;;;;;;;14.27;7.53;;;;;;;;;;4988769;28;20682;-78
2021/04/02 01:08:39;;;;;;;10.65;6.93;;;;;;;;;;4964069;28;20196;-77
2021/04/02 01:11:08;;;;;;;9.82;6.60;;;;;;;;;;4976756;28;20201;-77
2021/04/02 01:13:41;;;;;;;10.68;7.65;;;;;;;;;;4979945;28;20190;-77
2021/04/02 01:16:10;;;;;;;13.23;7.32;;;;;;;;;;4979387;28;20192;-77
2021/04/02 01:18:56;;;;;;;9.73;7.55;;;;;;;;;;4998441;28;20179;-77
2021/04/02 01:21:36;;;;;;;12.05;7.40;;;;;;;;;;4979956;28;20200;-78
2021/04/02 01:24:02;;;;;;;9.35;7.00;;;;;;;;;;4977240;28;20243;-77
2021/04/02 01:26:33;;;;;;;11.10;7.53;;;;;;;;;;4978124;28;20675;-78
2021/04/02 01:29:16;;;;;;;11.20;8.35;;;;;;;;;;4976289;28;20986;-78
2021/04/02 01:31:48;;;;;;;9.63;7.13;;;;;;;;;;4974761;28;20287;-77
2021/04/02 01:34:15;;;;;;;8.88;7.25;;;;;;;;;;4977760;28;20209;-78
2021/04/02 01:36:43;;;;;;;11.55;8.05;;;;;;;;;;4975288;28;20212;-78
2021/04/02 01:39:11;;;;;;;13.00;7.57;;;;;;;;;;4975997;28;20734;-78
2021/04/02 01:41:39;;;;;;;13.93;7.50;;;;;;;;;;4985220;28;20634;-77
2021/04/02 01:44:05;;;;;;;13.63;7.80;;;;;;;;;;4980488;28;20189;-77
2021/04/02 01:46:31;;;;;;;8.80;7.50;;;;;;;;;;4984598;28;20239;-77
2021/04/02 01:48:59;;;;;;;11.82;7.93;;;;;;;;;;4993869;28;20184;-78
2021/04/02 01:51:26;;;;;;;11.50;7.70;;;;;;;;;;4988660;28;20608;-77
2021/04/02 01:53:53;;;;;;;8.55;7.75;;;;;;;;;;4978875;28;20228;-77
2021/04/02 01:56:19;;;;;;;12.18;7.80;;;;;;;;;;4975332;28;20196;-78
2021/04/02 01:58:45;;;;;;;17.40;8.50;;;;;;;;;;4977248;28;20169;-78
2021/04/02 02:01:13;;;;;;;14.95;8.50;;;;;;;;;;4975546;28;20671;-78
2021/04/02 02:03:39;;;;;;;9.27;7.82;;;;;;;;;;4977056;28;20185;-77
2021/04/02 02:06:06;;;;;;;9.23;7.55;;;;;;;;;;4976633;28;20200;-78
2021/04/02 02:08:32;;;;;;;11.40;8.40;;;;;;;;;;4976533;28;20202;-78
2021/04/02 02:11:15;;;;;;;9.77;7.63;;;;;;;;;;4977310;28;20205;-78
2021/04/02 02:14:01;;;;;;;13.15;8.77;;;;;;;;;;4976204;28;20185;-78
2021/04/02 02:16:29;;;;;;;10.48;8.60;;;;;;;;;;4975035;28;20209;-78
2021/04/02 02:18:56;;;;;;;11.40;9.63;;;;;;;;;;4979921;28;20260;-78
2021/04/02 02:21:23;;;;;;;10.63;8.60;;;;;;;;;;4985712;28;20201;-78
2021/04/02 02:23:49;;;;;;;14.00;9.07;;;;;;;;;;4985534;28;20175;-78
2021/04/02 02:26:16;;;;;;;12.15;9.00;;;;;;;;;;4982782;28;20218;-77
2021/04/02 02:28:42;;;;;;;9.55;8.45;;;;;;;;;;4979879;28;20198;-78
2021/04/02 02:31:08;;;;;;;13.15;9.10;;;;;;;;;;4979606;28;20357;-78
2021/04/02 02:33:34;;;;;;;13.90;7.95;;;;;;;;;;4980249;28;20184;-78
2021/04/02 02:36:00;;;;;;;8.97;8.07;;;;;;;;;;4978671;28;20218;-77
2021/04/02 02:38:27;;;;;;;9.63;8.63;;;;;;;;;;4977147;28;20426;-77
2021/04/02 02:40:53;;;;;;;10.52;8.10;;;;;;;;;;4977839;28;20178;-77
2021/04/02 02:43:19;;;;;;;8.98;8.07;;;;;;;;;;4983044;28;20192;-79
2021/04/02 02:45:46;;;;;;;10.95;8.80;;;;;;;;;;4983470;28;20184;-79
2021/04/02 02:48:12;;;;;;;9.65;8.50;;;;;;;;;;4983640;28;20198;-77
2021/04/02 02:50:39;;;;;;;11.00;9.43;;;;;;;;;;4985168;28;20249;-78
2021/04/02 02:53:06;;;;;;;14.82;9.52;;;;;;;;;;4979750;28;20491;-78
2021/04/02 02:55:33;;;;;;;12.50;8.90;;;;;;;;;;4977709;28;20191;-78
2021/04/02 02:58:00;;;;;;;11.57;9.77;;;;;;;;;;4979622;28;20192;-78
2021/04/02 03:00:28;;;;;;;10.02;8.98;;;;;;;;;;4978291;28;20555;-78
2021/04/02 03:02:55;;;;;;;11.45;8.73;;;;;;;;;;4979333;28;20188;-78
2021/04/02 03:05:23;;;;;;;13.60;8.90;;;;;;;;;;4979044;28;20212;-78
2021/04/02 03:07:53;;;;;;;10.40;9.07;;;;;;;;;;4977041;28;20286;-78
2021/04/02 03:10:19;;;;;;;10.15;8.27;;;;;;;;;;4977332;28;20175;-77
2021/04/02 03:12:46;;;;;;;9.27;8.27;;;;;;;;;;4979364;28;20172;-77
2021/04/02 03:15:13;;;;;;;10.00;8.27;;;;;;;;;;4977274;28;20185;-78
2021/04/02 03:17:40;;;;;;;10.23;8.57;;;;;;;;;;4966937;28;20196;-78
2021/04/02 03:20:07;;;;;;;10.27;9.10;;;;;;;;;;4978894;28;20266;-79
2021/04/02 03:22:34;;;;;;;10.85;8.35;;;;;;;;;;4979940;28;20191;-79
2021/04/02 03:25:01;;;;;;;13.68;9.02;;;;;;;;;;4982726;28;20590;-79
2021/04/02 03:27:27;;;;;;;14.45;9.13;;;;;;;;;;4976910;28;20207;-79
2021/04/02 03:29:54;;;;;;;12.57;9.15;;;;;;;;;;4983166;28;20183;-78
2021/04/02 03:32:22;;;;;;;16.27;10.13;;;;;;;;;;4982976;28;20246;-79
2021/04/02 03:34:49;;;;;;;13.52;10.40;;;;;;;;;;4982964;28;20209;-79
2021/04/02 03:37:15;;;;;;;10.85;9.68;;;;;;;;;;4982145;28;20277;-78
2021/04/02 03:39:43;;;;;;;11.00;9.90;;;;;;;;;;4976501;28;20182;-78
2021/04/02 03:42:11;;;;;;;11.25;8.88;;;;;;;;;;4976911;28;20191;-78
2021/04/02 03:44:38;;;;;;;11.70;9.50;;;;;;;;;;4977492;28;20187;-78
2021/04/02 03:47:05;;;;;;;15.07;10.43;;;;;;;;;;4977141;28;20200;-78
2021/04/02 03:49:33;;;;;;;16.67;10.23;;;;;;;;;;4977947;28;20597;-78
2021/04/02 03:52:01;;;;;;;11.20;9.38;;;;;;;;;;4979875;28;20215;-79
2021/04/02 03:54:29;;;;;;;19.25;10.15;;;;;;;;;;4980377;28;20191;-77
2021/04/02 03:56:56;;;;;;;14.95;11.18;;;;;;;;;;4974050;28;20192;-78
2021/04/02 03:59:23;;;;;;;14.15;9.98;;;;;;;;;;4974787;28;20179;-78
2021/04/02 04:01:50;;;;;;;15.65;10.93;;;;;;;;;;4992643;28;20201;-77
2021/04/02 04:04:16;;;;;;;18.02;10.73;;;;;;;;;;4996343;28;20199;-77
2021/04/02 04:06:43;;;;;;;17.23;11.45;;;;;;;;;;4996742;28;20271;-77
2021/04/02 04:09:10;;;;;;;12.27;10.98;;;;;;;;;;5015319;28;20191;-77
2021/04/02 04:11:37;;;;;;;19.00;12.13;;;;;;;;;;4987916;28;20262;-78
2021/04/02 04:14:04;;;;;;;16.52;10.38;;;;;;;;;;4978532;28;20180;-78
2021/04/02 04:16:30;;;;;;;12.90;11.10;;;;;;;;;;4977027;28;20233;-78
2021/04/02 04:18:57;;;;;;;11.40;9.70;;;;;;;;;;4979800;28;20570;-78
2021/04/02 04:21:25;;;;;;;18.38;11.15;;;;;;;;;;4979582;28;20197;-77
2021/04/02 04:23:51;;;;;;;17.23;10.40;;;;;;;;;;4979072;28;20192;-78
2021/04/02 04:26:17;;;;;;;22.37;11.07;;;;;;;;;;4978043;28;20570;-78
2021/04/02 04:28:46;;;;;;;13.45;12.07;;;;;;;;;;4981581;28;20461;-77
2021/04/02 04:31:12;;;;;;;19.83;12.00;;;;;;;;;;4986056;28;20208;-78
2021/04/02 04:33:39;;;;;;;13.05;9.68;;;;;;;;;;4989275;28;20202;-79
2021/04/02 04:36:07;;;;;;;14.77;10.73;;;;;;;;;;4980457;28;20216;-78
2021/04/02 04:38:34;;;;;;;10.45;9.35;;;;;;;;;;4980217;28;20208;-78
2021/04/02 04:41:00;;;;;;;14.77;9.90;;;;;;;;;;4978810;28;20193;-78
2021/04/02 04:43:26;;;;;;;13.57;10.57;;;;;;;;;;4979446;28;20263;-79
2021/04/02 04:45:53;;;;;;;16.60;11.70;;;;;;;;;;4979627;28;21164;-75
2021/04/02 04:48:19;;;;;;;12.20;10.88;;;;;;;;;;4974699;28;20260;-75
2021/04/02 04:50:45;;;;;;;12.33;10.67;;;;;;;;;;4974456;28;20288;-75
2021/04/02 04:53:19;;;;;;;12.00;10.67;;;;;;;;;;4974112;28;20494;-75
2021/04/02 04:55:45;;;;;;;14.43;10.05;;;;;;;;;;4974241;28;20438;-75
2021/04/02 04:58:12;;;;;;;11.75;10.10;;;;;;;;;;4959514;28;20181;-75
2021/04/02 05:00:39;;;;;;;14.55;10.55;;;;;;;;;;4962991;28;20184;-75
2021/04/02 05:03:06;;;;;;;15.43;10.85;;;;;;;;;;4972244;28;20188;-75
2021/04/02 05:05:33;;;;;;;15.00;11.32;;;;;;;;;;4955173;28;20232;-75
2021/04/02 05:08:01;;;;;;;13.73;10.45;;;;;;;;;;4973226;28;20691;-75
2021/04/02 05:10:28;;;;;;;14.25;9.50;;;;;;;;;;4973004;28;20222;-75
2021/04/02 05:12:54;;;;;;;14.40;10.68;;;;;;;;;;4973922;28;20176;-75
2021/04/02 05:15:20;;;;;;;11.10;9.45;;;;;;;;;;4973047;28;20196;-76
2021/04/02 05:17:47;;;;;;;14.35;10.20;;;;;;;;;;4974021;28;20196;-75
2021/04/02 05:20:13;;;;;;;17.73;10.73;;;;;;;;;;4973905;28;20192;-75
2021/04/02 05:22:39;;;;;;;11.13;9.57;;;;;;;;;;4972522;28;20258;-75
2021/04/02 05:25:06;;;;;;;13.40;10.43;;;;;;;;;;4973520;28;20215;-75
2021/04/02 05:27:32;;;;;;;12.90;10.45;;;;;;;;;;4967347;28;20452;-75
2021/04/02 05:29:58;;;;;;;13.57;11.05;;;;;;;;;;4973850;28;20276;-75
2021/04/02 05:32:24;;;;;;;13.85;11.48;;;;;;;;;;4973676;28;20218;-75
2021/04/02 05:34:50;;;;;;;15.20;11.48;;;;;;;;;;4974016;28;20176;-74
2021/04/02 05:37:16;;;;;;;21.80;11.97;;;;;;;;;;4973218;28;20283;-74
2021/04/02 05:39:42;;;;;;;14.00;11.43;;;;;;;;;;4975890;28;20436;-73
2021/04/02 05:42:09;;;;;;;16.27;10.37;;;;;;;;;;4966015;28;20429;-73
2021/04/02 05:44:36;;;;;;;18.33;11.50;;;;;;;;;;4966300;28;20433;-74
2021/04/02 05:47:04;;;;;;;13.32;11.55;;;;;;;;;;4954402;28;20196;-74
2021/04/02 05:49:30;;;;;;;14.65;12.45;;;;;;;;;;4972781;28;20271;-74
2021/04/02 05:51:57;;;;;;;14.32;11.73;;;;;;;;;;4972934;28;20230;-74
2021/04/02 05:54:30;;;;;;;14.38;11.88;;;;;;;;;;4973259;28;20697;-74
2021/04/02 05:56:57;;;;;;;15.13;13.70;;;;;;;;;;4968138;28;20247;-74
2021/04/02 05:59:23;;;;;;;18.60;13.90;;;;;;;;;;4971408;28;20685;-75
2021/04/02 06:01:50;;;;;;;19.35;13.10;;;;;;;;;;4972880;28;20184;-75
2021/04/02 06:04:17;;;;;;;17.35;11.43;;;;;;;;;;4973234;28;20192;-75
2021/04/02 06:06:43;;;;;;;17.30;13.27;;;;;;;;;;4973097;28;20197;-75
2021/04/02 06:09:09;;;;;;;16.17;11.85;;;;;;;;;;4972200;28;20325;-75
2021/04/02 06:11:36;;;;;;;13.35;11.57;;;;;;;;;;4972476;28;20218;-75
2021/04/02 06:14:02;;;;;;;14.90;11.60;;;;;;;;;;4972806;28;20184;-75
2021/04/02 06:16:28;;;;;;;17.65;12.05;;;;;;;;;;4983897;28;20200;-75
2021/04/02 06:19:04;;;;;;;17.00;12.75;;;;;;;;;;4978752;28;20215;-74
2021/04/02 06:21:30;;;;;;;18.70;13.70;;;;;;;;;;4972531;28;20184;-75
2021/04/02 06:23:56;;;;;;;27.17;15.10;;;;;;;;;;4973105;28;20177;-76
2021/04/02 06:26:22;;;;;;;20.40;14.27;;;;;;;;;;4972034;28;20229;-76
2021/04/02 06:28:48;;;;;;;19.95;15.20;;;;;;;;;;4965890;28;20192;-76
2021/04/02 06:31:16;;;;;;;19.65;15.63;;;;;;;;;;4973479;28;20267;-76
2021/04/02 06:33:50;;;;;;;24.23;15.00;;;;;;;;;;4973009;28;20648;-76
2021/04/02 06:36:16;;;;;;;24.92;16.98;;;;;;;;;;4988522;22;20212;-71
2021/04/02 06:38:44;;;;;;;24.92;18.20;;;;;;;;;;4990945;28;20683;-72
2021/04/02 06:41:10;;;;;;;25.65;18.00;;;;;;;;;;4992097;28;20188;-72
2021/04/02 06:43:46;;;;;;;29.55;20.85;;;;;;;;;;4991586;28;20197;-72
2021/04/02 06:46:18;;;;;;;28.88;18.90;;;;;;;;;;4991892;28;20216;-73
2021/04/02 06:48:44;;;;;;;44.75;20.90;;;;;;;;;;4974032;28;20190;-72
2021/04/02 06:51:17;;;;;;;30.50;19.40;;;;;;;;;;4982567;28;20321;-72
2021/04/02 06:53:47;;;;;;;33.53;22.13;;;;;;;;;;4988376;28;20443;-71
2021/04/02 06:56:14;;;;;;;40.08;23.70;;;;;;;;;;4992179;28;20695;-71
2021/04/02 06:58:40;;;;;;;38.00;23.38;;;;;;;;;;4992232;28;20705;-73
2021/04/02 07:01:07;;;;;;;44.65;26.02;;;;;;;;;;4992261;28;20189;-72
2021/04/02 07:03:33;;;;;;;43.95;23.45;;;;;;;;;;4989556;28;20572;-73
2021/04/02 07:06:00;;;;;;;43.67;27.83;;;;;;;;;;4992242;28;20219;-74
2021/04/02 07:08:27;;;;;;;42.92;25.55;;;;;;;;;;4991885;28;20242;-73
2021/04/02 07:10:54;;;;;;;39.97;25.95;;;;;;;;;;4992108;28;20208;-72
2021/04/02 07:13:20;;;;;;;44.10;26.27;;;;;;;;;;4984402;28;20263;-72
2021/04/02 07:15:46;;;;;;;37.93;24.20;;;;;;;;;;4978247;28;20219;-72
2021/04/02 07:18:13;;;;;;;41.70;25.40;;;;;;;;;;4974812;28;20461;-72
2021/04/02 07:20:39;;;;;;;42.05;24.38;;;;;;;;;;4987891;28;20191;-72
2021/04/02 07:23:05;;;;;;;36.97;24.87;;;;;;;;;;4990724;28;20188;-72
2021/04/02 07:25:32;;;;;;;41.85;24.58;;;;;;;;;;4991951;28;20414;-72
2021/04/02 07:27:58;;;;;;;25.80;17.33;;;;;;;;;;4994909;28;20198;-72
2021/04/02 07:30:26;;;;;;;20.65;15.40;;;;;;;;;;4995576;28;20186;-72
2021/04/02 07:32:53;;;;;;;21.90;15.55;;;;;;;;;;4992841;28;20184;-72
2021/04/02 07:35:20;;;;;;;19.55;13.55;;;;;;;;;;4990103;28;20233;-72
2021/04/02 07:37:51;;;;;;;19.98;14.80;;;;;;;;;;4995151;28;20207;-72
2021/04/02 07:40:17;;;;;;;24.25;14.73;;;;;;;;;;4994934;28;20262;-72
2021/04/02 07:42:49;;;;;;;20.38;14.50;;;;;;;;;;4992553;28;20175;-72
2021/04/02 07:45:18;;;;;;;19.67;13.43;;;;;;;;;;4986631;28;20198;-72
2021/04/02 07:47:49;;;;;;;19.35;12.38;;;;;;;;;;4995294;28;20195;-72
2021/04/02 07:50:15;;;;;;;23.52;13.18;;;;;;;;;;4995031;28;20184;-72
2021/04/02 07:52:43;;;;;;;17.20;13.27;;;;;;;;;;4991158;28;20209;-73
2021/04/02 07:55:16;;;;;;;12.32;10.32;;;;;;;;;;4994197;28;20426;-73
2021/04/02 07:57:58;;;;;;;14.07;9.68;;;;;;;;;;4994309;28;20195;-73
2021/04/02 08:00:28;;;;;;;13.30;10.35;;;;;;;;;;4990306;28;20187;-74
2021/04/02 08:03:06;;;;;;;16.88;10.18;;;;;;;;;;4983507;28;21759;-74
2021/04/02 08:05:32;;;;;;;12.32;9.05;;;;;;;;;;4990486;28;20190;-74
2021/04/02 08:07:58;;;;;;;15.53;9.67;;;;;;;;;;4992214;28;20199;-75
2021/04/02 08:10:24;;;;;;;12.82;8.75;;;;;;;;;;4990179;28;20446;-74
2021/04/02 08:12:50;;;;;;;12.77;9.35;;;;;;;;;;4990513;28;20206;-74
2021/04/02 08:15:17;;;;;;;11.48;9.90;;;;;;;;;;4983460;28;20406;-74
2021/04/02 08:17:44;;;;;;;11.40;8.57;;;;;;;;;;4989923;28;20206;-74
2021/04/02 08:20:17;;;;;;;14.43;8.50;;;;;;;;;;5003312;28;20182;-74
2021/04/02 08:22:44;;;;;;;10.38;8.45;;;;;;;;;;4993836;28;20179;-74
2021/04/02 08:25:11;;;;;;;10.27;7.47;;;;;;;;;;4992986;28;20215;-74
2021/04/02 08:27:37;;;;;;;7.72;6.93;;;;;;;;;;4988683;28;20228;-74
2021/04/02 08:30:05;;;;;;;10.57;6.70;;;;;;;;;;4990522;28;20647;-73
2021/04/02 08:32:34;;;;;;;8.20;6.93;;;;;;;;;;4991116;28;20213;-72
2021/04/02 08:35:00;;;;;;;13.30;8.10;;;;;;;;;;4993720;28;20172;-72
2021/04/02 08:37:29;;;;;;;8.88;6.60;;;;;;;;;;4993721;28;20211;-72
2021/04/02 08:39:55;;;;;;;10.85;6.78;;;;;;;;;;4991573;28;20218;-72
2021/04/02 08:42:21;;;;;;;11.45;8.48;;;;;;;;;;4990022;28;20184;-73
2021/04/02 08:44:47;;;;;;;12.10;7.55;;;;;;;;;;4989629;28;20183;-73
2021/04/02 08:47:17;;;;;;;10.52;8.45;;;;;;;;;;4989620;28;20598;-72
2021/04/02 08:49:54;;;;;;;9.85;8.48;;;;;;;;;;4985011;28;20230;-71
2021/04/02 08:52:19;;;;;;;11.20;7.55;;;;;;;;;;4993542;28;20207;-71
2021/04/02 08:54:46;;;;;;;9.17;8.20;;;;;;;;;;4990499;28;20237;-71
2021/04/02 08:57:14;;;;;;;12.60;9.98;;;;;;;;;;4990632;28;20799;-72
2021/04/02 08:59:44;;;;;;;20.40;12.63;;;;;;;;;;4991471;28;20587;-72
2021/04/02 09:02:12;;;;;;;16.08;12.15;;;;;;;;;;4988386;28;20211;-72
2021/04/02 09:04:38;;;;;;;12.40;9.82;;;;;;;;;;4978700;28;20222;-72
2021/04/02 09:07:05;;;;;;;10.30;9.30;;;;;;;;;;4981160;28;20215;-71
2021/04/02 09:09:31;;;;;;;9.90;8.70;;;;;;;;;;4992177;28;20190;-71
2021/04/02 09:12:04;;;;;;;11.25;7.90;;;;;;;;;;4989485;28;20219;-72
2021/04/02 09:14:31;;;;;;;11.88;7.90;;;;;;;;;;4989511;28;20357;-72
2021/04/02 09:16:57;;;;;;;11.45;8.73;;;;;;;;;;4991157;28;20203;-71
2021/04/02 09:19:24;;;;;;;8.85;7.97;;;;;;;;;;4992828;28;20255;-74
2021/04/02 09:21:51;;;;;;;11.13;7.40;;;;;;;;;;4992881;28;20188;-72
2021/04/02 09:24:17;;;;;;;9.60;7.63;;;;;;;;;;4992366;28;20558;-71
2021/04/02 09:26:44;;;;;;;13.50;7.75;;;;;;;;;;4975382;28;20282;-71
2021/04/02 09:29:11;;;;;;;18.08;8.32;;;;;;;;;;4980456;28;20687;-74
2021/04/02 09:31:42;;;;;;;11.90;8.00;;;;;;;;;;4987815;28;20298;-74
2021/04/02 09:34:09;;;;;;;12.52;8.43;;;;;;;;;;4993226;28;20186;-74
2021/04/02 09:36:36;;;;;;;14.32;7.65;;;;;;;;;;4992983;28;20585;-74
2021/04/02 09:39:24;;;;;;;10.27;7.65;;;;;;;;;;4985481;28;20239;-74
2021/04/02 09:41:57;;;;;;;11.25;7.15;;;;;;;;;;4985181;28;20182;-74
2021/04/02 09:44:24;;;;;;;12.15;8.45;;;;;;;;;;4990328;28;20725;-74
2021/04/02 09:46:50;;;;;;;9.90;7.47;;;;;;;;;;4990489;28;20215;-74
2021/04/02 09:49:18;;;;;;;10.57;8.45;;;;;;;;;;4992204;28;20749;-74
2021/04/02 09:51:45;;;;;;;7.38;6.68;;;;;;;;;;4992476;28;20290;-74
2021/04/02 09:54:12;;;;;;;7.20;6.57;;;;;;;;;;4982469;28;20667;-73
2021/04/02 09:56:38;;;;;;;7.70;6.88;;;;;;;;;;4983552;28;20912;-74
2021/04/02 09:59:05;;;;;;;8.13;6.80;;;;;;;;;;4989830;28;20183;-73
2021/04/02 10:01:35;;;;;;;13.52;6.97;;;;;;;;;;4986605;28;20580;-74
2021/04/02 10:04:01;;;;;;;11.90;6.57;;;;;;;;;;4992493;28;20188;-73
2021/04/02 10:06:27;;;;;;;8.25;6.13;;;;;;;;;;4992575;28;20197;-73
2021/04/02 10:08:54;;;;;;;8.30;7.00;;;;;;;;;;4990440;28;20647;-74
2021/04/02 10:11:20;;;;;;;8.30;6.45;;;;;;;;;;4987920;28;20238;-74
2021/04/02 10:13:46;;;;;;;8.45;6.47;;;;;;;;;;4990139;28;20238;-73
2021/04/02 10:16:12;;;;;;;10.70;7.60;;;;;;;;;;4990682;28;20192;-74
2021/04/02 10:18:38;;;;;;;9.27;6.87;;;;;;;;;;4987987;28;20453;-73
2021/04/02 10:21:05;;;;;;;8.80;7.90;;;;;;;;;;4988133;28;20431;-73
2021/04/02 10:23:31;;;;;;;10.38;9.27;;;;;;;;;;4991951;28;20745;-73
2021/04/02 10:25:57;;;;;;;10.88;8.35;;;;;;;;;;4985911;28;20718;-73
2021/04/02 10:28:23;;;;;;;9.15;6.32;;;;;;;;;;4990029;28;20233;-72
2021/04/02 10:30:52;;;;;;;8.68;6.35;;;;;;;;;;4987308;28;20203;-73
2021/04/02 10:33:18;;;;;;;7.50;6.78;;;;;;;;;;4990470;28;20594;-75
2021/04/02 10:35:45;;;;;;;7.22;6.43;;;;;;;;;;4988440;28;20278;-75
2021/04/02 10:38:11;;;;;;;9.88;6.55;;;;;;;;;;4976933;28;20606;-75
2021/04/02 10:40:37;;;;;;;11.43;6.73;;;;;;;;;;4987674;28;20175;-74
2021/04/02 10:43:03;;;;;;;8.25;6.90;;;;;;;;;;4983182;28;20401;-72
2021/04/02 10:45:29;;;;;;;7.05;6.35;;;;;;;;;;4985189;28;20186;-72
2021/04/02 10:47:56;;;;;;;9.88;6.97;;;;;;;;;;4991955;28;20195;-75
2021/04/02 10:50:23;;;;;;;8.50;6.30;;;;;;;;;;4992279;28;20181;-73
2021/04/02 10:52:49;;;;;;;7.40;6.13;;;;;;;;;;4989328;28;20222;-73
2021/04/02 10:55:15;;;;;;;7.65;5.80;;;;;;;;;;4983257;28;20309;-72
2021/04/02 10:57:41;;;;;;;5.93;5.30;;;;;;;;;;4983357;28;20684;-74
2021/04/02 11:00:08;;;;;;;6.87;5.37;;;;;;;;;;4983057;28;20191;-72
2021/04/02 11:02:34;;;;;;;9.27;5.60;;;;;;;;;;4993969;28;20386;-73
2021/04/02 11:05:00;;;;;;;6.00;5.50;;;;;;;;;;4978380;28;20556;-72
2021/04/02 11:07:26;;;;;;;6.47;5.80;;;;;;;;;;4989956;28;20441;-71
2021/04/02 11:09:53;;;;;;;5.93;5.43;;;;;;;;;;4991221;28;20242;-71
2021/04/02 11:12:19;;;;;;;5.90;5.20;;;;;;;;;;4991704;28;20262;-71
2021/04/02 11:14:45;;;;;;;9.23;6.70;;;;;;;;;;4983533;28;20219;-73
2021/04/02 11:17:11;;;;;;;5.40;4.90;;;;;;;;;;4994405;28;21937;-73
2021/04/02 11:19:37;;;;;;;8.10;6.10;;;;;;;;;;4995589;28;20203;-72
2021/04/02 11:22:03;;;;;;;6.70;5.20;;;;;;;;;;4989577;28;20751;-72
2021/04/02 11:24:29;;;;;;;10.02;6.65;;;;;;;;;;4986137;28;20442;-72
2021/04/02 11:26:55;;;;;;;8.50;6.50;;;;;;;;;;4982559;28;20204;-71
2021/04/02 11:29:21;;;;;;;9.07;6.90;;;;;;;;;;4984665;28;20409;-72
2021/04/02 11:31:47;;;;;;;12.40;6.30;;;;;;;;;;4991849;28;20274;-72
2021/04/02 11:34:14;;;;;;;18.50;15.90;;;;;;;;;;4983515;28;20787;-72
2021/04/02 11:36:40;;;;;;;22.05;17.83;;;;;;;;;;4989316;28;20470;-73
2021/04/02 11:39:07;;;;;;;25.25;20.63;;;;;;;;;;4989802;28;20186;-73
2021/04/02 11:41:33;;;;;;;32.35;23.83;;;;;;;;;;4986510;28;20678;-73
2021/04/02 11:43:59;;;;;;;23.95;20.40;;;;;;;;;;4987924;28;20184;-73
2021/04/02 11:46:25;;;;;;;34.10;24.27;;;;;;;;;;4992552;28;20721;-73
2021/04/02 11:48:51;;;;;;;34.53;25.23;;;;;;;;;;4990700;28;20466;-73
2021/04/02 11:51:17;;;;;;;31.38;23.10;;;;;;;;;;4991457;28;20825;-73
2021/04/02 11:53:43;;;;;;;30.30;24.90;;;;;;;;;;4982195;28;20180;-72
2021/04/02 11:56:09;;;;;;;32.40;24.07;;;;;;;;;;4983137;28;20418;-72
2021/04/02 11:58:35;;;;;;;32.72;25.38;;;;;;;;;;4988070;28;20405;-73
2021/04/02 12:01:01;;;;;;;31.43;24.87;;;;;;;;;;4994015;28;20522;-73
2021/04/02 12:03:27;;;;;;;32.03;27.07;;;;;;;;;;4991079;28;20513;-73
2021/04/02 12:05:53;;;;;;;40.03;28.83;;;;;;;;;;4992296;28;20444;-73
2021/04/02 12:08:19;;;;;;;33.90;25.92;;;;;;;;;;4990512;28;20470;-73
2021/04/02 12:10:45;;;;;;;38.83;28.77;;;;;;;;;;4990666;28;20250;-73
2021/04/02 12:13:11;;;;;;;42.78;28.92;;;;;;;;;;4989931;28;20441;-73
2021/04/02 12:15:37;;;;;;;38.95;27.50;;;;;;;;;;4990263;28;20238;-73
2021/04/02 12:18:04;;;;;;;39.67;29.48;;;;;;;;;;4980436;28;20201;-74
2021/04/02 12:20:30;;;;;;;36.88;27.50;;;;;;;;;;4985120;28;20210;-74
2021/04/02 12:22:56;;;;;;;35.10;26.63;;;;;;;;;;4986756;28;20178;-74
2021/04/02 12:25:22;;;;;;;33.80;24.00;;;;;;;;;;4976356;28;20656;-73
2021/04/02 12:27:48;;;;;;;35.17;25.17;;;;;;;;;;4985219;28;20819;-73
2021/04/02 12:30:15;;;;;;;43.97;27.67;;;;;;;;;;4992288;28;20442;-73
2021/04/02 12:32:42;;;;;;;41.00;27.92;;;;;;;;;;4993569;28;20454;-73
2021/04/02 12:35:09;;;;;;;43.92;32.20;;;;;;;;;;4980951;28;20210;-73
2021/04/02 12:37:35;;;;;;;51.90;34.20;;;;;;;;;;4996961;22;20232;-74
2021/04/02 12:40:01;;;;;;;49.10;34.95;;;;;;;;;;4948360;28;20185;-75
2021/04/02 12:42:28;;;;;;;43.33;29.70;;;;;;;;;;4951636;28;20221;-75
2021/04/02 12:44:54;;;;;;;39.30;28.20;;;;;;;;;;4965139;28;20255;-74
2021/04/02 12:47:20;;;;;;;33.00;25.95;;;;;;;;;;4958549;28;20217;-74
2021/04/02 12:49:46;;;;;;;41.58;26.83;;;;;;;;;;4953707;28;20660;-74
2021/04/02 12:52:13;;;;;;;48.40;31.67;;;;;;;;;;4951308;28;20204;-74
2021/04/02 12:54:39;;;;;;;56.88;37.85;;;;;;;;;;4950495;28;20428;-74
2021/04/02 12:57:05;;;;;;;54.83;35.90;;;;;;;;;;4954880;28;20564;-74
2021/04/02 12:59:31;;;;;;;42.63;29.80;;;;;;;;;;4947726;28;20445;-75
2021/04/02 13:01:57;;;;;;;36.73;25.47;;;;;;;;;;4958014;28;20675;-75
2021/04/02 13:04:23;;;;;;;28.47;17.80;;;;;;;;;;4972048;28;20408;-75
2021/04/02 13:06:49;;;;;;;13.03;11.33;;;;;;;;;;4955375;28;20498;-74
2021/04/02 13:09:15;;;;;;;15.57;11.50;;;;;;;;;;4955196;28;20448;-75
2021/04/02 13:11:41;;;;;;;14.30;10.50;;;;;;;;;;4953821;28;20471;-75
2021/04/02 13:14:09;;;;;;;21.23;11.00;;;;;;;;;;4959573;28;20561;-76
2021/04/02 13:16:35;;;;;;;12.82;9.70;;;;;;;;;;4958567;28;20484;-76
2021/04/02 13:19:01;;;;;;;12.93;8.60;;;;;;;;;;4953403;28;20551;-76
2021/04/02 13:21:27;;;;;;;13.43;8.80;;;;;;;;;;4954458;28;20196;-74
2021/04/02 13:23:53;;;;;;;11.90;7.40;;;;;;;;;;4951326;28;20596;-75
2021/04/02 13:26:19;;;;;;;11.60;7.53;;;;;;;;;;4959540;28;20428;-75
2021/04/02 13:28:46;;;;;;;8.63;6.97;;;;;;;;;;4956108;28;20432;-75
2021/04/02 13:31:12;;;;;;;9.45;7.40;;;;;;;;;;4953263;28;20468;-75
2021/04/02 13:33:38;;;;;;;14.17;10.50;;;;;;;;;;4953337;28;20540;-76
2021/04/02 13:36:04;;;;;;;21.10;15.10;;;;;;;;;;4953935;28;20409;-75
2021/04/02 13:38:30;;;;;;;19.58;12.13;;;;;;;;;;4953180;28;20496;-75
2021/04/02 13:40:56;;;;;;;9.80;8.70;;;;;;;;;;4953692;28;20212;-74
2021/04/02 13:43:22;;;;;;;12.63;9.60;;;;;;;;;;4953309;28;20436;-76
2021/04/02 13:45:49;;;;;;;16.77;14.37;;;;;;;;;;4953230;28;20478;-76
2021/04/02 13:48:15;;;;;;;20.38;13.80;;;;;;;;;;4954238;28;20451;-76
2021/04/02 13:50:41;;;;;;;19.17;12.43;;;;;;;;;;4954303;28;20180;-76
2021/04/02 13:53:07;;;;;;;14.67;12.07;;;;;;;;;;4952472;28;20181;-75
2021/04/02 13:55:33;;;;;;;13.53;11.10;;;;;;;;;;4953239;28;20877;-76
2021/04/02 13:58:00;;;;;;;17.03;15.40;;;;;;;;;;4948372;28;20816;-75
2021/04/02 14:00:28;;;;;;;19.45;17.38;;;;;;;;;;4951292;29;20460;-76
2021/04/02 14:02:55;;;;;;;16.85;13.82;;;;;;;;;;4953530;28;20205;-76
2021/04/02 14:05:21;;;;;;;12.55;11.32;;;;;;;;;;4953338;28;20657;-77
2021/04/02 14:07:47;;;;;;;10.43;9.38;;;;;;;;;;4953935;28;20276;-75
2021/04/02 14:10:19;;;;;;;13.95;11.90;;;;;;;;;;4942115;28;20196;-76
2021/04/02 14:12:48;;;;;;;15.93;14.27;;;;;;;;;;4949607;29;20208;-75
2021/04/02 14:15:15;;;;;;;22.52;18.40;;;;;;;;;;4945949;29;20173;-75
2021/04/02 14:17:41;;;;;;;14.70;13.25;;;;;;;;;;4953317;28;20208;-75
2021/04/02 14:20:08;;;;;;;11.98;10.90;;;;;;;;;;4951373;28;20224;-75
2021/04/02 14:22:34;;;;;;;11.25;9.85;;;;;;;;;;4953669;28;20177;-76
2021/04/02 14:25:00;;;;;;;14.15;12.60;;;;;;;;;;4951105;28;20185;-75